sensor_id;sensor_type;location;lat;lon;timestamp;P1;durP1;ratioP1;P2;durP2;ratioP2
1471;SDS011;963;42.644;23.336;2023-12-22T00:00:08;22.67;;;14.63;;
1471;SDS011;963;42.644;23.336;2023-12-22T00:02:34;20.63;;;15.13;;
1471;SDS011;963;42.644;23.336;2023-12-22T00:05:00;20.80;;;13.60;;
1471;SDS011;963;42.644;23.336;2023-12-22T00:07:25;20.60;;;13.70;;
1471;SDS011;963;42.644;23.336;2023-12-22T00:09:51;22.60;;;15.07;;
1471;SDS011;963;42.644;23.336;2023-12-22T00:12:16;23.13;;;13.80;;
1471;SDS011;963;42.644;23.336;2023-12-22T00:14:42;23.47;;;15.50;;
1471;SDS011;963;42.644;23.336;2023-12-22T00:17:07;20.70;;;14.87;;
1471;SDS011;963;42.644;23.336;2023-12-22T00:19:33;19.70;;;14.27;;
1471;SDS011;963;42.644;23.336;2023-12-22T00:21:58;30.93;;;14.93;;
1471;SDS011;963;42.644;23.336;2023-12-22T00:24:24;22.03;;;14.37;;
1471;SDS011;963;42.644;23.336;2023-12-22T00:26:49;20.07;;;13.03;;
1471;SDS011;963;42.644;23.336;2023-12-22T00:29:14;23.00;;;12.70;;
1471;SDS011;963;42.644;23.336;2023-12-22T00:31:40;18.23;;;13.83;;
1471;SDS011;963;42.644;23.336;2023-12-22T00:34:05;18.57;;;12.63;;
1471;SDS011;963;42.644;23.336;2023-12-22T00:36:31;20.23;;;13.07;;
1471;SDS011;963;42.644;23.336;2023-12-22T00:38:56;19.03;;;12.83;;
1471;SDS011;963;42.644;23.336;2023-12-22T00:41:21;17.13;;;12.27;;
1471;SDS011;963;42.644;23.336;2023-12-22T00:43:47;21.27;;;11.87;;
1471;SDS011;963;42.644;23.336;2023-12-22T00:46:13;15.57;;;11.77;;
1471;SDS011;963;42.644;23.336;2023-12-22T00:48:38;17.48;;;11.60;;
1471;SDS011;963;42.644;23.336;2023-12-22T00:51:05;15.10;;;10.73;;
1471;SDS011;963;42.644;23.336;2023-12-22T00:53:32;16.33;;;11.73;;
1471;SDS011;963;42.644;23.336;2023-12-22T00:55:57;20.47;;;11.40;;
1471;SDS011;963;42.644;23.336;2023-12-22T00:58:22;15.13;;;11.30;;
1471;SDS011;963;42.644;23.336;2023-12-22T01:00:48;17.30;;;12.00;;
1471;SDS011;963;42.644;23.336;2023-12-22T01:03:13;19.80;;;11.53;;
1471;SDS011;963;42.644;23.336;2023-12-22T01:05:38;18.27;;;12.07;;
1471;SDS011;963;42.644;23.336;2023-12-22T01:08:04;18.80;;;11.70;;
1471;SDS011;963;42.644;23.336;2023-12-22T01:10:30;17.33;;;12.50;;
1471;SDS011;963;42.644;23.336;2023-12-22T01:12:55;16.27;;;10.77;;
1471;SDS011;963;42.644;23.336;2023-12-22T01:15:20;16.33;;;12.03;;
1471;SDS011;963;42.644;23.336;2023-12-22T01:17:46;18.87;;;11.30;;
1471;SDS011;963;42.644;23.336;2023-12-22T01:20:11;17.23;;;11.90;;
1471;SDS011;963;42.644;23.336;2023-12-22T01:22:37;18.63;;;12.63;;
1471;SDS011;963;42.644;23.336;2023-12-22T01:25:03;21.37;;;11.70;;
1471;SDS011;963;42.644;23.336;2023-12-22T01:27:30;17.70;;;12.53;;
1471;SDS011;963;42.644;23.336;2023-12-22T01:29:56;17.30;;;11.27;;
1471;SDS011;963;42.644;23.336;2023-12-22T01:32:21;19.13;;;12.23;;
1471;SDS011;963;42.644;23.336;2023-12-22T01:34:46;19.97;;;12.27;;
1471;SDS011;963;42.644;23.336;2023-12-22T01:37:12;17.93;;;12.00;;
1471;SDS011;963;42.644;23.336;2023-12-22T01:39:37;15.10;;;11.20;;
1471;SDS011;963;42.644;23.336;2023-12-22T01:42:03;20.50;;;12.30;;
1471;SDS011;963;42.644;23.336;2023-12-22T01:44:29;21.00;;;12.90;;
1471;SDS011;963;42.644;23.336;2023-12-22T01:46:54;22.53;;;15.17;;
1471;SDS011;963;42.644;23.336;2023-12-22T01:49:21;18.80;;;11.90;;
1471;SDS011;963;42.644;23.336;2023-12-22T01:51:47;17.77;;;12.30;;
1471;SDS011;963;42.644;23.336;2023-12-22T01:54:13;16.43;;;11.20;;
1471;SDS011;963;42.644;23.336;2023-12-22T01:56:40;16.23;;;11.13;;
1471;SDS011;963;42.644;23.336;2023-12-22T01:59:07;17.50;;;11.50;;
1471;SDS011;963;42.644;23.336;2023-12-22T02:01:33;19.17;;;11.17;;
1471;SDS011;963;42.644;23.336;2023-12-22T02:04:00;16.97;;;11.27;;
1471;SDS011;963;42.644;23.336;2023-12-22T02:06:26;16.43;;;11.60;;
1471;SDS011;963;42.644;23.336;2023-12-22T02:08:51;17.40;;;10.33;;
1471;SDS011;963;42.644;23.336;2023-12-22T02:11:19;17.40;;;11.10;;
1471;SDS011;963;42.644;23.336;2023-12-22T02:13:44;21.67;;;11.70;;
1471;SDS011;963;42.644;23.336;2023-12-22T02:16:59;23.40;;;12.17;;
1471;SDS011;963;42.644;23.336;2023-12-22T02:19:04;17.67;;;12.00;;
1471;SDS011;963;42.644;23.336;2023-12-22T02:22:01;16.10;;;11.27;;
1471;SDS011;963;42.644;23.336;2023-12-22T02:24:29;18.73;;;10.70;;
1471;SDS011;963;42.644;23.336;2023-12-22T02:26:55;16.30;;;11.60;;
1471;SDS011;963;42.644;23.336;2023-12-22T02:29:29;16.53;;;10.80;;
1471;SDS011;963;42.644;23.336;2023-12-22T02:31:57;16.00;;;11.00;;
1471;SDS011;963;42.644;23.336;2023-12-22T02:34:27;18.93;;;12.20;;
1471;SDS011;963;42.644;23.336;2023-12-22T02:36:53;17.60;;;11.87;;
1471;SDS011;963;42.644;23.336;2023-12-22T02:39:19;16.23;;;11.30;;
1471;SDS011;963;42.644;23.336;2023-12-22T02:41:45;16.60;;;11.10;;
1471;SDS011;963;42.644;23.336;2023-12-22T02:44:11;16.63;;;11.07;;
1471;SDS011;963;42.644;23.336;2023-12-22T02:46:36;20.03;;;13.00;;
1471;SDS011;963;42.644;23.336;2023-12-22T02:49:02;18.67;;;11.33;;
1471;SDS011;963;42.644;23.336;2023-12-22T02:51:27;20.20;;;11.87;;
1471;SDS011;963;42.644;23.336;2023-12-22T02:53:53;16.80;;;11.17;;
1471;SDS011;963;42.644;23.336;2023-12-22T02:56:18;19.23;;;11.30;;
1471;SDS011;963;42.644;23.336;2023-12-22T02:58:43;18.20;;;12.40;;
1471;SDS011;963;42.644;23.336;2023-12-22T03:01:09;17.77;;;11.87;;
1471;SDS011;963;42.644;23.336;2023-12-22T03:03:34;19.07;;;11.83;;
1471;SDS011;963;42.644;23.336;2023-12-22T03:06:00;18.23;;;11.47;;
1471;SDS011;963;42.644;23.336;2023-12-22T03:08:25;17.70;;;11.20;;
1471;SDS011;963;42.644;23.336;2023-12-22T03:10:50;18.23;;;12.10;;
1471;SDS011;963;42.644;23.336;2023-12-22T03:13:16;19.67;;;13.00;;
1471;SDS011;963;42.644;23.336;2023-12-22T03:15:41;19.40;;;11.30;;
1471;SDS011;963;42.644;23.336;2023-12-22T03:18:06;15.17;;;11.43;;
1471;SDS011;963;42.644;23.336;2023-12-22T03:20:32;15.10;;;11.00;;
1471;SDS011;963;42.644;23.336;2023-12-22T03:22:57;16.00;;;11.57;;
1471;SDS011;963;42.644;23.336;2023-12-22T03:25:23;19.93;;;12.90;;
1471;SDS011;963;42.644;23.336;2023-12-22T03:27:49;16.10;;;11.83;;
1471;SDS011;963;42.644;23.336;2023-12-22T03:30:15;16.80;;;11.70;;
1471;SDS011;963;42.644;23.336;2023-12-22T03:32:40;18.53;;;12.13;;
1471;SDS011;963;42.644;23.336;2023-12-22T03:35:06;17.20;;;11.97;;
1471;SDS011;963;42.644;23.336;2023-12-22T03:37:31;16.80;;;11.90;;
1471;SDS011;963;42.644;23.336;2023-12-22T03:39:56;18.13;;;12.10;;
1471;SDS011;963;42.644;23.336;2023-12-22T03:42:22;20.47;;;13.80;;
1471;SDS011;963;42.644;23.336;2023-12-22T03:44:47;15.00;;;11.83;;
1471;SDS011;963;42.644;23.336;2023-12-22T03:47:12;16.27;;;12.00;;
1471;SDS011;963;42.644;23.336;2023-12-22T03:49:40;21.63;;;12.40;;
1471;SDS011;963;42.644;23.336;2023-12-22T03:52:05;15.70;;;12.40;;
1471;SDS011;963;42.644;23.336;2023-12-22T03:54:31;18.83;;;12.00;;
1471;SDS011;963;42.644;23.336;2023-12-22T03:56:56;20.23;;;13.70;;
1471;SDS011;963;42.644;23.336;2023-12-22T03:59:21;19.63;;;12.77;;
1471;SDS011;963;42.644;23.336;2023-12-22T04:01:50;17.00;;;11.93;;
1471;SDS011;963;42.644;23.336;2023-12-22T04:04:17;16.73;;;11.57;;
1471;SDS011;963;42.644;23.336;2023-12-22T04:06:43;20.13;;;12.47;;
1471;SDS011;963;42.644;23.336;2023-12-22T04:09:08;18.30;;;13.13;;
1471;SDS011;963;42.644;23.336;2023-12-22T04:11:34;16.53;;;12.00;;
1471;SDS011;963;42.644;23.336;2023-12-22T04:14:01;16.07;;;11.90;;
1471;SDS011;963;42.644;23.336;2023-12-22T04:16:26;17.57;;;11.50;;
1471;SDS011;963;42.644;23.336;2023-12-22T04:18:52;16.90;;;11.87;;
1471;SDS011;963;42.644;23.336;2023-12-22T04:21:17;17.13;;;11.00;;
1471;SDS011;963;42.644;23.336;2023-12-22T04:23:43;15.90;;;10.90;;
1471;SDS011;963;42.644;23.336;2023-12-22T04:26:08;17.40;;;12.23;;
1471;SDS011;963;42.644;23.336;2023-12-22T04:28:33;16.93;;;10.90;;
1471;SDS011;963;42.644;23.336;2023-12-22T04:30:59;16.80;;;11.67;;
1471;SDS011;963;42.644;23.336;2023-12-22T04:33:24;16.70;;;11.33;;
1471;SDS011;963;42.644;23.336;2023-12-22T04:35:49;18.17;;;12.07;;
1471;SDS011;963;42.644;23.336;2023-12-22T04:38:15;14.73;;;10.90;;
1471;SDS011;963;42.644;23.336;2023-12-22T04:40:40;15.50;;;11.47;;
1471;SDS011;963;42.644;23.336;2023-12-22T04:43:05;19.63;;;10.80;;
1471;SDS011;963;42.644;23.336;2023-12-22T04:45:31;15.87;;;10.60;;
1471;SDS011;963;42.644;23.336;2023-12-22T04:47:56;16.90;;;12.03;;
1471;SDS011;963;42.644;23.336;2023-12-22T04:50:22;14.40;;;10.33;;
1471;SDS011;963;42.644;23.336;2023-12-22T04:52:47;16.23;;;11.67;;
1471;SDS011;963;42.644;23.336;2023-12-22T04:55:13;16.73;;;11.90;;
1471;SDS011;963;42.644;23.336;2023-12-22T04:57:38;16.40;;;10.77;;
1471;SDS011;963;42.644;23.336;2023-12-22T05:00:04;16.10;;;10.67;;
1471;SDS011;963;42.644;23.336;2023-12-22T05:02:30;14.07;;;11.27;;
1471;SDS011;963;42.644;23.336;2023-12-22T05:04:55;15.37;;;11.20;;
1471;SDS011;963;42.644;23.336;2023-12-22T05:07:21;18.20;;;11.90;;
1471;SDS011;963;42.644;23.336;2023-12-22T05:09:46;18.83;;;12.77;;
1471;SDS011;963;42.644;23.336;2023-12-22T05:12:12;17.43;;;11.30;;
1471;SDS011;963;42.644;23.336;2023-12-22T05:14:38;17.13;;;12.50;;
1471;SDS011;963;42.644;23.336;2023-12-22T05:17:04;16.40;;;11.57;;
1471;SDS011;963;42.644;23.336;2023-12-22T05:19:29;22.43;;;14.17;;
1471;SDS011;963;42.644;23.336;2023-12-22T05:21:55;24.93;;;13.97;;
1471;SDS011;963;42.644;23.336;2023-12-22T05:24:21;21.53;;;12.73;;
1471;SDS011;963;42.644;23.336;2023-12-22T05:26:47;17.17;;;11.67;;
1471;SDS011;963;42.644;23.336;2023-12-22T05:29:12;16.40;;;12.47;;
1471;SDS011;963;42.644;23.336;2023-12-22T05:31:38;16.60;;;11.27;;
1471;SDS011;963;42.644;23.336;2023-12-22T05:34:03;21.20;;;13.30;;
1471;SDS011;963;42.644;23.336;2023-12-22T05:36:29;21.23;;;13.10;;
1471;SDS011;963;42.644;23.336;2023-12-22T05:38:54;19.53;;;13.00;;
1471;SDS011;963;42.644;23.336;2023-12-22T05:41:20;22.83;;;12.93;;
1471;SDS011;963;42.644;23.336;2023-12-22T05:43:45;19.93;;;12.90;;
1471;SDS011;963;42.644;23.336;2023-12-22T05:46:10;23.33;;;13.90;;
1471;SDS011;963;42.644;23.336;2023-12-22T05:48:36;20.83;;;11.37;;
1471;SDS011;963;42.644;23.336;2023-12-22T05:51:01;16.40;;;12.27;;
1471;SDS011;963;42.644;23.336;2023-12-22T05:53:32;14.43;;;11.93;;
1471;SDS011;963;42.644;23.336;2023-12-22T05:55:58;17.30;;;10.90;;
1471;SDS011;963;42.644;23.336;2023-12-22T05:58:23;17.07;;;11.07;;
1471;SDS011;963;42.644;23.336;2023-12-22T06:00:49;16.67;;;11.23;;
1471;SDS011;963;42.644;23.336;2023-12-22T06:03:14;19.13;;;12.93;;
1471;SDS011;963;42.644;23.336;2023-12-22T06:05:40;19.77;;;11.17;;
1471;SDS011;963;42.644;23.336;2023-12-22T06:08:05;16.50;;;11.33;;
1471;SDS011;963;42.644;23.336;2023-12-22T06:10:31;21.00;;;13.97;;
1471;SDS011;963;42.644;23.336;2023-12-22T06:12:56;18.57;;;14.20;;
1471;SDS011;963;42.644;23.336;2023-12-22T06:15:23;19.07;;;13.27;;
1471;SDS011;963;42.644;23.336;2023-12-22T06:17:48;18.50;;;13.40;;
1471;SDS011;963;42.644;23.336;2023-12-22T06:20:13;21.37;;;14.13;;
1471;SDS011;963;42.644;23.336;2023-12-22T06:22:39;21.40;;;13.40;;
1471;SDS011;963;42.644;23.336;2023-12-22T06:25:04;21.43;;;12.27;;
1471;SDS011;963;42.644;23.336;2023-12-22T06:27:32;15.93;;;12.00;;
1471;SDS011;963;42.644;23.336;2023-12-22T06:30:02;16.60;;;12.00;;
1471;SDS011;963;42.644;23.336;2023-12-22T06:32:28;18.87;;;13.03;;
1471;SDS011;963;42.644;23.336;2023-12-22T06:34:54;18.13;;;11.50;;
1471;SDS011;963;42.644;23.336;2023-12-22T06:37:19;20.33;;;13.30;;
1471;SDS011;963;42.644;23.336;2023-12-22T06:39:44;19.43;;;11.83;;
1471;SDS011;963;42.644;23.336;2023-12-22T06:42:10;18.93;;;12.00;;
1471;SDS011;963;42.644;23.336;2023-12-22T06:44:37;17.53;;;13.30;;
1471;SDS011;963;42.644;23.336;2023-12-22T06:47:03;17.57;;;12.83;;
1471;SDS011;963;42.644;23.336;2023-12-22T06:49:28;15.80;;;11.93;;
1471;SDS011;963;42.644;23.336;2023-12-22T06:51:54;22.47;;;12.70;;
1471;SDS011;963;42.644;23.336;2023-12-22T06:54:19;22.23;;;12.50;;
1471;SDS011;963;42.644;23.336;2023-12-22T06:56:44;20.27;;;12.07;;
1471;SDS011;963;42.644;23.336;2023-12-22T06:59:10;21.37;;;13.80;;
1471;SDS011;963;42.644;23.336;2023-12-22T07:01:37;17.43;;;11.90;;
1471;SDS011;963;42.644;23.336;2023-12-22T07:04:03;18.27;;;13.00;;
1471;SDS011;963;42.644;23.336;2023-12-22T07:06:29;20.90;;;12.77;;
1471;SDS011;963;42.644;23.336;2023-12-22T07:08:56;19.63;;;12.60;;
1471;SDS011;963;42.644;23.336;2023-12-22T07:11:40;20.97;;;14.00;;
1471;SDS011;963;42.644;23.336;2023-12-22T07:14:09;16.70;;;13.02;;
1471;SDS011;963;42.644;23.336;2023-12-22T07:16:35;16.23;;;12.63;;
1471;SDS011;963;42.644;23.336;2023-12-22T07:19:01;18.00;;;11.53;;
1471;SDS011;963;42.644;23.336;2023-12-22T07:21:26;19.60;;;13.37;;
1471;SDS011;963;42.644;23.336;2023-12-22T07:23:52;18.13;;;12.33;;
1471;SDS011;963;42.644;23.336;2023-12-22T07:26:17;15.83;;;11.90;;
1471;SDS011;963;42.644;23.336;2023-12-22T07:28:43;17.83;;;13.00;;
1471;SDS011;963;42.644;23.336;2023-12-22T07:31:08;15.10;;;13.03;;
1471;SDS011;963;42.644;23.336;2023-12-22T07:33:33;17.63;;;12.53;;
1471;SDS011;963;42.644;23.336;2023-12-22T07:35:59;20.03;;;12.00;;
1471;SDS011;963;42.644;23.336;2023-12-22T07:38:24;15.07;;;12.30;;
1471;SDS011;963;42.644;23.336;2023-12-22T07:40:50;19.63;;;12.70;;
1471;SDS011;963;42.644;23.336;2023-12-22T07:43:15;16.30;;;12.90;;
1471;SDS011;963;42.644;23.336;2023-12-22T07:45:41;17.43;;;12.80;;
1471;SDS011;963;42.644;23.336;2023-12-22T07:48:07;22.23;;;12.70;;
1471;SDS011;963;42.644;23.336;2023-12-22T07:50:32;20.37;;;14.13;;
1471;SDS011;963;42.644;23.336;2023-12-22T07:52:58;19.53;;;13.33;;
1471;SDS011;963;42.644;23.336;2023-12-22T07:55:24;20.87;;;15.70;;
1471;SDS011;963;42.644;23.336;2023-12-22T07:57:49;18.27;;;13.00;;
1471;SDS011;963;42.644;23.336;2023-12-22T08:00:16;20.93;;;13.73;;
1471;SDS011;963;42.644;23.336;2023-12-22T08:02:42;19.03;;;12.30;;
1471;SDS011;963;42.644;23.336;2023-12-22T08:05:08;18.23;;;13.40;;
1471;SDS011;963;42.644;23.336;2023-12-22T08:07:33;19.50;;;14.37;;
1471;SDS011;963;42.644;23.336;2023-12-22T08:09:59;17.67;;;13.37;;
1471;SDS011;963;42.644;23.336;2023-12-22T08:12:26;20.03;;;13.67;;
1471;SDS011;963;42.644;23.336;2023-12-22T08:14:53;17.07;;;12.80;;
1471;SDS011;963;42.644;23.336;2023-12-22T08:17:18;18.70;;;13.60;;
1471;SDS011;963;42.644;23.336;2023-12-22T08:19:43;21.00;;;14.13;;
1471;SDS011;963;42.644;23.336;2023-12-22T08:22:12;28.53;;;14.83;;
1471;SDS011;963;42.644;23.336;2023-12-22T08:24:38;17.60;;;12.33;;
1471;SDS011;963;42.644;23.336;2023-12-22T08:27:07;17.40;;;12.17;;
1471;SDS011;963;42.644;23.336;2023-12-22T08:29:32;19.47;;;13.50;;
1471;SDS011;963;42.644;23.336;2023-12-22T08:31:58;21.00;;;12.67;;
1471;SDS011;963;42.644;23.336;2023-12-22T08:34:24;21.93;;;13.13;;
1471;SDS011;963;42.644;23.336;2023-12-22T08:36:49;21.97;;;13.73;;
1471;SDS011;963;42.644;23.336;2023-12-22T08:39:14;20.03;;;13.80;;
1471;SDS011;963;42.644;23.336;2023-12-22T08:41:40;18.70;;;14.50;;
1471;SDS011;963;42.644;23.336;2023-12-22T08:44:06;21.97;;;14.23;;
1471;SDS011;963;42.644;23.336;2023-12-22T08:46:31;20.07;;;15.00;;
1471;SDS011;963;42.644;23.336;2023-12-22T08:48:57;25.80;;;18.17;;
1471;SDS011;963;42.644;23.336;2023-12-22T08:51:24;21.33;;;14.90;;
1471;SDS011;963;42.644;23.336;2023-12-22T08:53:53;25.13;;;15.53;;
1471;SDS011;963;42.644;23.336;2023-12-22T08:56:20;20.97;;;14.30;;
1471;SDS011;963;42.644;23.336;2023-12-22T08:58:50;22.43;;;16.60;;
1471;SDS011;963;42.644;23.336;2023-12-22T09:01:17;21.30;;;14.87;;
1471;SDS011;963;42.644;23.336;2023-12-22T09:03:43;22.20;;;15.87;;
1471;SDS011;963;42.644;23.336;2023-12-22T09:06:13;26.40;;;16.00;;
1471;SDS011;963;42.644;23.336;2023-12-22T09:08:40;22.37;;;15.20;;
1471;SDS011;963;42.644;23.336;2023-12-22T09:11:05;22.73;;;15.20;;
1471;SDS011;963;42.644;23.336;2023-12-22T09:13:30;21.93;;;15.03;;
1471;SDS011;963;42.644;23.336;2023-12-22T09:15:58;20.40;;;15.83;;
1471;SDS011;963;42.644;23.336;2023-12-22T09:18:24;19.23;;;14.37;;
1471;SDS011;963;42.644;23.336;2023-12-22T09:20:49;21.30;;;13.83;;
1471;SDS011;963;42.644;23.336;2023-12-22T09:23:14;19.17;;;15.37;;
1471;SDS011;963;42.644;23.336;2023-12-22T09:25:40;21.87;;;14.63;;
1471;SDS011;963;42.644;23.336;2023-12-22T09:28:05;24.53;;;16.87;;
1471;SDS011;963;42.644;23.336;2023-12-22T09:30:31;21.50;;;15.53;;
1471;SDS011;963;42.644;23.336;2023-12-22T09:32:56;29.50;;;14.50;;
1471;SDS011;963;42.644;23.336;2023-12-22T09:35:22;23.77;;;12.70;;
1471;SDS011;963;42.644;23.336;2023-12-22T09:37:50;17.40;;;11.67;;
1471;SDS011;963;42.644;23.336;2023-12-22T09:40:15;16.73;;;12.50;;
1471;SDS011;963;42.644;23.336;2023-12-22T09:42:41;22.07;;;13.67;;
1471;SDS011;963;42.644;23.336;2023-12-22T09:45:10;18.50;;;12.90;;
1471;SDS011;963;42.644;23.336;2023-12-22T09:47:37;20.43;;;13.97;;
1471;SDS011;963;42.644;23.336;2023-12-22T09:50:04;18.20;;;12.50;;
1471;SDS011;963;42.644;23.336;2023-12-22T09:52:30;20.00;;;13.10;;
1471;SDS011;963;42.644;23.336;2023-12-22T09:54:59;21.40;;;13.33;;
1471;SDS011;963;42.644;23.336;2023-12-22T09:57:26;19.70;;;12.93;;
1471;SDS011;963;42.644;23.336;2023-12-22T09:59:53;18.97;;;12.90;;
1471;SDS011;963;42.644;23.336;2023-12-22T10:02:19;24.33;;;16.27;;
1471;SDS011;963;42.644;23.336;2023-12-22T10:04:45;23.03;;;15.30;;
1471;SDS011;963;42.644;23.336;2023-12-22T10:07:11;24.67;;;16.93;;
1471;SDS011;963;42.644;23.336;2023-12-22T10:09:39;24.37;;;17.60;;
1471;SDS011;963;42.644;23.336;2023-12-22T10:12:06;25.43;;;18.17;;
1471;SDS011;963;42.644;23.336;2023-12-22T10:14:34;23.40;;;17.10;;
1471;SDS011;963;42.644;23.336;2023-12-22T10:17:01;29.07;;;19.93;;
1471;SDS011;963;42.644;23.336;2023-12-22T10:19:26;28.20;;;17.00;;
1471;SDS011;963;42.644;23.336;2023-12-22T10:21:51;32.80;;;21.87;;
1471;SDS011;963;42.644;23.336;2023-12-22T10:27:15;25.43;;;16.77;;
1471;SDS011;963;42.644;23.336;2023-12-22T10:29:47;24.40;;;18.23;;
1471;SDS011;963;42.644;23.336;2023-12-22T10:32:13;26.00;;;16.63;;
1471;SDS011;963;42.644;23.336;2023-12-22T10:34:39;25.07;;;17.97;;
1471;SDS011;963;42.644;23.336;2023-12-22T10:37:04;25.97;;;17.63;;
1471;SDS011;963;42.644;23.336;2023-12-22T10:39:30;28.20;;;18.50;;
1471;SDS011;963;42.644;23.336;2023-12-22T10:41:56;32.70;;;23.83;;
1471;SDS011;963;42.644;23.336;2023-12-22T10:44:28;26.10;;;17.83;;
1471;SDS011;963;42.644;23.336;2023-12-22T10:46:55;25.53;;;18.40;;
1471;SDS011;963;42.644;23.336;2023-12-22T10:49:21;31.80;;;19.10;;
1471;SDS011;963;42.644;23.336;2023-12-22T10:51:47;24.10;;;17.40;;
1471;SDS011;963;42.644;23.336;2023-12-22T10:54:14;27.87;;;18.63;;
1471;SDS011;963;42.644;23.336;2023-12-22T10:56:39;31.63;;;21.10;;
1471;SDS011;963;42.644;23.336;2023-12-22T10:59:05;25.67;;;19.27;;
1471;SDS011;963;42.644;23.336;2023-12-22T11:01:32;28.03;;;20.03;;
1471;SDS011;963;42.644;23.336;2023-12-22T11:04:01;24.00;;;19.30;;
1471;SDS011;963;42.644;23.336;2023-12-22T11:06:30;23.43;;;17.17;;
1471;SDS011;963;42.644;23.336;2023-12-22T11:09:00;28.23;;;19.07;;
1471;SDS011;963;42.644;23.336;2023-12-22T11:11:35;28.93;;;19.70;;
1471;SDS011;963;42.644;23.336;2023-12-22T11:14:04;26.30;;;20.20;;
1471;SDS011;963;42.644;23.336;2023-12-22T11:16:31;32.80;;;21.33;;
1471;SDS011;963;42.644;23.336;2023-12-22T11:19:01;28.83;;;19.63;;
1471;SDS011;963;42.644;23.336;2023-12-22T11:21:27;23.90;;;17.70;;
1471;SDS011;963;42.644;23.336;2023-12-22T11:23:54;21.77;;;16.40;;
1471;SDS011;963;42.644;23.336;2023-12-22T11:26:20;22.33;;;15.33;;
1471;SDS011;963;42.644;23.336;2023-12-22T11:28:48;19.40;;;15.67;;
1471;SDS011;963;42.644;23.336;2023-12-22T11:31:16;24.70;;;13.10;;
1471;SDS011;963;42.644;23.336;2023-12-22T11:33:48;12.10;;;9.90;;
1471;SDS011;963;42.644;23.336;2023-12-22T11:36:16;5.17;;;4.30;;
1471;SDS011;963;42.644;23.336;2023-12-22T11:38:43;2.87;;;2.23;;
1471;SDS011;963;42.644;23.336;2023-12-22T11:41:12;2.83;;;2.50;;
1471;SDS011;963;42.644;23.336;2023-12-22T11:43:41;2.73;;;2.03;;
1471;SDS011;963;42.644;23.336;2023-12-22T11:46:07;3.87;;;1.80;;
1471;SDS011;963;42.644;23.336;2023-12-22T11:48:33;2.47;;;2.17;;
1471;SDS011;963;42.644;23.336;2023-12-22T11:50:59;1.87;;;1.67;;
1471;SDS011;963;42.644;23.336;2023-12-22T11:53:25;3.53;;;2.80;;
1471;SDS011;963;42.644;23.336;2023-12-22T11:56:02;5.60;;;3.23;;
1471;SDS011;963;42.644;23.336;2023-12-22T12:03:38;2.07;;;1.53;;
1471;SDS011;963;42.644;23.336;2023-12-22T12:06:16;2.33;;;1.80;;
1471;SDS011;963;42.644;23.336;2023-12-22T12:08:47;2.10;;;1.80;;
1471;SDS011;963;42.644;23.336;2023-12-22T12:11:14;1.67;;;1.30;;
1471;SDS011;963;42.644;23.336;2023-12-22T12:13:43;3.20;;;1.60;;
1471;SDS011;963;42.644;23.336;2023-12-22T12:16:13;4.20;;;1.20;;
1471;SDS011;963;42.644;23.336;2023-12-22T12:18:39;3.13;;;1.37;;
1471;SDS011;963;42.644;23.336;2023-12-22T12:21:06;2.53;;;1.40;;
1471;SDS011;963;42.644;23.336;2023-12-22T12:23:35;1.90;;;1.30;;
1471;SDS011;963;42.644;23.336;2023-12-22T12:26:01;1.70;;;1.20;;
1471;SDS011;963;42.644;23.336;2023-12-22T12:28:26;2.20;;;1.40;;
1471;SDS011;963;42.644;23.336;2023-12-22T12:31:00;1.70;;;1.20;;
1471;SDS011;963;42.644;23.336;2023-12-22T12:33:29;1.50;;;1.10;;
1471;SDS011;963;42.644;23.336;2023-12-22T12:35:59;1.73;;;1.20;;
1471;SDS011;963;42.644;23.336;2023-12-22T12:41:36;1.87;;;1.53;;
1471;SDS011;963;42.644;23.336;2023-12-22T12:44:05;3.77;;;1.50;;
1471;SDS011;963;42.644;23.336;2023-12-22T12:46:35;2.23;;;1.60;;
1471;SDS011;963;42.644;23.336;2023-12-22T12:51:34;3.03;;;1.70;;
1471;SDS011;963;42.644;23.336;2023-12-22T12:54:02;3.60;;;2.07;;
1471;SDS011;963;42.644;23.336;2023-12-22T12:56:28;2.27;;;2.07;;
1471;SDS011;963;42.644;23.336;2023-12-22T12:58:53;3.93;;;1.97;;
1471;SDS011;963;42.644;23.336;2023-12-22T13:01:19;2.97;;;2.10;;
1471;SDS011;963;42.644;23.336;2023-12-22T13:03:51;2.90;;;2.17;;
1471;SDS011;963;42.644;23.336;2023-12-22T13:06:19;3.10;;;2.80;;
1471;SDS011;963;42.644;23.336;2023-12-22T13:08:49;2.40;;;1.77;;
1471;SDS011;963;42.644;23.336;2023-12-22T13:11:27;3.57;;;1.97;;
1471;SDS011;963;42.644;23.336;2023-12-22T13:13:55;6.20;;;4.30;;
1471;SDS011;963;42.644;23.336;2023-12-22T13:16:22;8.77;;;5.83;;
1471;SDS011;963;42.644;23.336;2023-12-22T13:18:51;6.83;;;4.73;;
1471;SDS011;963;42.644;23.336;2023-12-22T13:21:17;6.80;;;4.20;;
1471;SDS011;963;42.644;23.336;2023-12-22T13:23:43;4.47;;;3.00;;
1471;SDS011;963;42.644;23.336;2023-12-22T13:26:18;2.47;;;2.10;;
1471;SDS011;963;42.644;23.336;2023-12-22T13:28:44;3.00;;;2.70;;
1471;SDS011;963;42.644;23.336;2023-12-22T13:31:10;2.30;;;1.87;;
1471;SDS011;963;42.644;23.336;2023-12-22T13:33:39;2.03;;;1.73;;
1471;SDS011;963;42.644;23.336;2023-12-22T13:36:07;2.10;;;1.70;;
1471;SDS011;963;42.644;23.336;2023-12-22T13:38:32;3.13;;;2.33;;
1471;SDS011;963;42.644;23.336;2023-12-22T13:41:00;2.57;;;1.77;;
1471;SDS011;963;42.644;23.336;2023-12-22T13:43:29;3.87;;;1.77;;
1471;SDS011;963;42.644;23.336;2023-12-22T13:45:54;5.23;;;2.67;;
1471;SDS011;963;42.644;23.336;2023-12-22T13:48:21;3.80;;;2.30;;
1471;SDS011;963;42.644;23.336;2023-12-22T13:50:56;3.23;;;1.77;;
1471;SDS011;963;42.644;23.336;2023-12-22T13:53:22;3.60;;;2.37;;
1471;SDS011;963;42.644;23.336;2023-12-22T13:55:57;3.70;;;2.20;;
1471;SDS011;963;42.644;23.336;2023-12-22T13:58:23;7.80;;;1.97;;
1471;SDS011;963;42.644;23.336;2023-12-22T14:00:49;2.00;;;1.80;;
1471;SDS011;963;42.644;23.336;2023-12-22T14:03:16;4.27;;;2.17;;
1471;SDS011;963;42.644;23.336;2023-12-22T14:05:42;3.17;;;2.47;;
1471;SDS011;963;42.644;23.336;2023-12-22T14:08:07;2.63;;;2.20;;
1471;SDS011;963;42.644;23.336;2023-12-22T14:10:33;4.60;;;2.33;;
1471;SDS011;963;42.644;23.336;2023-12-22T14:12:58;2.80;;;1.93;;
1471;SDS011;963;42.644;23.336;2023-12-22T14:15:24;2.70;;;2.10;;
1471;SDS011;963;42.644;23.336;2023-12-22T14:17:49;1.90;;;1.43;;
1471;SDS011;963;42.644;23.336;2023-12-22T14:20:14;2.17;;;1.60;;
1471;SDS011;963;42.644;23.336;2023-12-22T14:22:40;4.73;;;2.40;;
1471;SDS011;963;42.644;23.336;2023-12-22T14:25:06;1.80;;;1.37;;
1471;SDS011;963;42.644;23.336;2023-12-22T14:27:31;2.30;;;1.40;;
1471;SDS011;963;42.644;23.336;2023-12-22T14:29:57;2.17;;;1.60;;
1471;SDS011;963;42.644;23.336;2023-12-22T14:32:22;7.83;;;3.30;;
1471;SDS011;963;42.644;23.336;2023-12-22T14:34:48;2.40;;;1.83;;
1471;SDS011;963;42.644;23.336;2023-12-22T14:37:14;2.30;;;2.10;;
1471;SDS011;963;42.644;23.336;2023-12-22T14:39:42;2.87;;;1.80;;
1471;SDS011;963;42.644;23.336;2023-12-22T14:42:07;1.80;;;1.63;;
1471;SDS011;963;42.644;23.336;2023-12-22T14:44:33;3.13;;;1.77;;
1471;SDS011;963;42.644;23.336;2023-12-22T14:46:58;2.20;;;1.60;;
1471;SDS011;963;42.644;23.336;2023-12-22T14:49:24;2.97;;;2.27;;
1471;SDS011;963;42.644;23.336;2023-12-22T14:51:49;2.40;;;1.93;;
1471;SDS011;963;42.644;23.336;2023-12-22T14:54:19;2.80;;;2.43;;
1471;SDS011;963;42.644;23.336;2023-12-22T14:56:44;2.70;;;1.90;;
1471;SDS011;963;42.644;23.336;2023-12-22T14:59:10;2.73;;;1.87;;
1471;SDS011;963;42.644;23.336;2023-12-22T15:01:39;2.37;;;1.90;;